sensor_id;sensor_type;location;lat;lon;timestamp;temperature;humidity
20081;DHT22;10200;49.232;9.222;2022-09-13T00:00:06;16.50;99.90
20081;DHT22;10200;49.232;9.222;2022-09-13T00:02:32;16.50;99.90
20081;DHT22;10200;49.232;9.222;2022-09-13T00:04:58;16.40;99.90
20081;DHT22;10200;49.232;9.222;2022-09-13T00:07:23;16.40;99.90
20081;DHT22;10200;49.232;9.222;2022-09-13T00:09:49;16.40;99.90
20081;DHT22;10200;49.232;9.222;2022-09-13T00:12:14;16.30;99.90
20081;DHT22;10200;49.232;9.222;2022-09-13T00:14:40;16.30;99.90
20081;DHT22;10200;49.232;9.222;2022-09-13T00:17:06;16.30;99.90
20081;DHT22;10200;49.232;9.222;2022-09-13T00:19:32;16.30;99.90
20081;DHT22;10200;49.232;9.222;2022-09-13T00:21:58;16.30;99.90
20081;DHT22;10200;49.232;9.222;2022-09-13T00:24:24;16.30;99.90
20081;DHT22;10200;49.232;9.222;2022-09-13T00:26:49;16.20;99.90
20081;DHT22;10200;49.232;9.222;2022-09-13T00:29:15;16.20;99.90
20081;DHT22;10200;49.232;9.222;2022-09-13T00:31:40;16.10;99.90
20081;DHT22;10200;49.232;9.222;2022-09-13T00:34:06;16.10;99.90
20081;DHT22;10200;49.232;9.222;2022-09-13T00:36:32;16.10;99.90
20081;DHT22;10200;49.232;9.222;2022-09-13T00:38:59;16.00;99.90
20081;DHT22;10200;49.232;9.222;2022-09-13T00:41:24;16.00;99.90
20081;DHT22;10200;49.232;9.222;2022-09-13T00:43:53;16.00;99.90
20081;DHT22;10200;49.232;9.222;2022-09-13T00:48:48;16.00;99.90
20081;DHT22;10200;49.232;9.222;2022-09-13T00:51:15;16.00;99.90
20081;DHT22;10200;49.232;9.222;2022-09-13T00:53:45;16.00;99.90
20081;DHT22;10200;49.232;9.222;2022-09-13T00:56:28;16.00;99.90
20081;DHT22;10200;49.232;9.222;2022-09-13T00:59:02;15.90;99.90
20081;DHT22;10200;49.232;9.222;2022-09-13T01:01:34;15.90;99.90
20081;DHT22;10200;49.232;9.222;2022-09-13T01:04:02;15.90;99.90
20081;DHT22;10200;49.232;9.222;2022-09-13T01:06:30;15.80;99.90
20081;DHT22;10200;49.232;9.222;2022-09-13T01:08:59;15.80;99.90
20081;DHT22;10200;49.232;9.222;2022-09-13T01:11:44;15.80;99.90
20081;DHT22;10200;49.232;9.222;2022-09-13T01:14:10;15.80;99.90
20081;DHT22;10200;49.232;9.222;2022-09-13T01:16:36;15.80;99.90
20081;DHT22;10200;49.232;9.222;2022-09-13T01:19:02;15.80;99.90
20081;DHT22;10200;49.232;9.222;2022-09-13T01:36:00;15.70;99.90
20081;DHT22;10200;49.232;9.222;2022-09-13T01:38:06;15.70;99.90
20081;DHT22;10200;49.232;9.222;2022-09-13T01:41:08;15.60;99.90
20081;DHT22;10200;49.232;9.222;2022-09-13T01:51:44;15.50;99.90
20081;DHT22;10200;49.232;9.222;2022-09-13T01:54:20;15.50;99.90
20081;DHT22;10200;49.232;9.222;2022-09-13T01:59:55;15.40;99.90
20081;DHT22;10200;49.232;9.222;2022-09-13T02:02:20;15.30;99.90
20081;DHT22;10200;49.232;9.222;2022-09-13T02:04:52;15.30;99.90
20081;DHT22;10200;49.232;9.222;2022-09-13T02:07:29;15.30;99.90
20081;DHT22;10200;49.232;9.222;2022-09-13T02:10:03;15.30;99.90
20081;DHT22;10200;49.232;9.222;2022-09-13T02:12:32;15.30;99.90
20081;DHT22;10200;49.232;9.222;2022-09-13T02:17:34;15.30;99.90
20081;DHT22;10200;49.232;9.222;2022-09-13T02:20:12;15.30;99.90
20081;DHT22;10200;49.232;9.222;2022-09-13T02:22:43;15.30;99.90
20081;DHT22;10200;49.232;9.222;2022-09-13T02:25:16;15.20;99.90
20081;DHT22;10200;49.232;9.222;2022-09-13T02:27:46;15.30;99.90
20081;DHT22;10200;49.232;9.222;2022-09-13T02:30:13;15.20;99.90
20081;DHT22;10200;49.232;9.222;2022-09-13T02:32:48;15.30;99.90
20081;DHT22;10200;49.232;9.222;2022-09-13T02:35:25;15.20;99.90
20081;DHT22;10200;49.232;9.222;2022-09-13T02:37:57;15.20;99.90
20081;DHT22;10200;49.232;9.222;2022-09-13T02:40:27;15.30;99.90
20081;DHT22;10200;49.232;9.222;2022-09-13T02:43:01;15.20;99.90
20081;DHT22;10200;49.232;9.222;2022-09-13T02:45:35;15.20;99.90
20081;DHT22;10200;49.232;9.222;2022-09-13T02:48:11;15.20;99.90
20081;DHT22;10200;49.232;9.222;2022-09-13T02:53:47;15.10;99.90
20081;DHT22;10200;49.232;9.222;2022-09-13T02:59:17;15.00;99.90
20081;DHT22;10200;49.232;9.222;2022-09-13T03:01:52;15.00;99.90
20081;DHT22;10200;49.232;9.222;2022-09-13T03:04:19;15.00;99.90
20081;DHT22;10200;49.232;9.222;2022-09-13T03:06:45;15.00;99.90
20081;DHT22;10200;49.232;9.222;2022-09-13T03:09:11;15.00;99.90
20081;DHT22;10200;49.232;9.222;2022-09-13T03:17:16;14.90;99.90
20081;DHT22;10200;49.232;9.222;2022-09-13T03:30:29;14.90;99.90
20081;DHT22;10200;49.232;9.222;2022-09-13T03:33:30;14.80;99.90
20081;DHT22;10200;49.232;9.222;2022-09-13T03:41:24;14.80;99.90
20081;DHT22;10200;49.232;9.222;2022-09-13T03:43:58;14.80;99.90
20081;DHT22;10200;49.232;9.222;2022-09-13T03:46:37;14.70;99.90
20081;DHT22;10200;49.232;9.222;2022-09-13T03:49:07;14.70;99.90
20081;DHT22;10200;49.232;9.222;2022-09-13T03:51:34;14.70;99.90
20081;DHT22;10200;49.232;9.222;2022-09-13T03:54:06;14.70;99.90
20081;DHT22;10200;49.232;9.222;2022-09-13T03:56:33;14.70;99.90
20081;DHT22;10200;49.232;9.222;2022-09-13T03:58:58;14.60;99.90
20081;DHT22;10200;49.232;9.222;2022-09-13T04:01:25;14.60;99.90
20081;DHT22;10200;49.232;9.222;2022-09-13T04:03:51;14.60;99.90
20081;DHT22;10200;49.232;9.222;2022-09-13T04:06:17;14.70;99.90
20081;DHT22;10200;49.232;9.222;2022-09-13T04:08:42;14.70;99.90
20081;DHT22;10200;49.232;9.222;2022-09-13T04:11:09;14.60;99.90
20081;DHT22;10200;49.232;9.222;2022-09-13T04:13:36;14.60;99.90
20081;DHT22;10200;49.232;9.222;2022-09-13T04:16:03;14.60;99.90
20081;DHT22;10200;49.232;9.222;2022-09-13T04:18:29;14.60;99.90
20081;DHT22;10200;49.232;9.222;2022-09-13T04:20:57;14.60;99.90
20081;DHT22;10200;49.232;9.222;2022-09-13T04:23:24;14.50;99.90
20081;DHT22;10200;49.232;9.222;2022-09-13T04:25:50;14.60;99.90
20081;DHT22;10200;49.232;9.222;2022-09-13T04:28:17;14.50;99.90
20081;DHT22;10200;49.232;9.222;2022-09-13T04:30:44;14.50;99.90
20081;DHT22;10200;49.232;9.222;2022-09-13T04:33:10;14.50;99.90
20081;DHT22;10200;49.232;9.222;2022-09-13T04:35:36;14.50;99.90
20081;DHT22;10200;49.232;9.222;2022-09-13T04:38:04;14.50;99.90
20081;DHT22;10200;49.232;9.222;2022-09-13T04:40:29;14.60;99.90
20081;DHT22;10200;49.232;9.222;2022-09-13T04:42:55;14.70;99.90
20081;DHT22;10200;49.232;9.222;2022-09-13T04:45:20;14.70;99.90
20081;DHT22;10200;49.232;9.222;2022-09-13T04:47:55;14.70;99.90
20081;DHT22;10200;49.232;9.222;2022-09-13T04:50:22;14.70;99.90
20081;DHT22;10200;49.232;9.222;2022-09-13T04:52:49;14.80;99.90
20081;DHT22;10200;49.232;9.222;2022-09-13T04:55:15;14.80;99.90
20081;DHT22;10200;49.232;9.222;2022-09-13T04:57:41;14.80;99.90
20081;DHT22;10200;49.232;9.222;2022-09-13T05:00:07;14.80;99.90
20081;DHT22;10200;49.232;9.222;2022-09-13T05:02:33;14.80;99.90
20081;DHT22;10200;49.232;9.222;2022-09-13T05:04:58;14.70;99.90
20081;DHT22;10200;49.232;9.222;2022-09-13T05:07:24;14.60;99.90
20081;DHT22;10200;49.232;9.222;2022-09-13T05:09:50;14.70;99.90
20081;DHT22;10200;49.232;9.222;2022-09-13T05:12:15;14.60;99.90
20081;DHT22;10200;49.232;9.222;2022-09-13T05:14:41;14.60;99.90
20081;DHT22;10200;49.232;9.222;2022-09-13T05:17:07;14.50;99.90
20081;DHT22;10200;49.232;9.222;2022-09-13T05:19:32;14.60;99.90
20081;DHT22;10200;49.232;9.222;2022-09-13T05:22:00;14.60;99.90
20081;DHT22;10200;49.232;9.222;2022-09-13T05:24:26;14.60;99.90
20081;DHT22;10200;49.232;9.222;2022-09-13T05:26:52;14.70;99.90
20081;DHT22;10200;49.232;9.222;2022-09-13T05:29:17;14.70;99.90
20081;DHT22;10200;49.232;9.222;2022-09-13T05:31:43;14.90;99.90
20081;DHT22;10200;49.232;9.222;2022-09-13T05:34:12;15.00;99.90
20081;DHT22;10200;49.232;9.222;2022-09-13T05:36:38;15.10;99.90
20081;DHT22;10200;49.232;9.222;2022-09-13T05:39:05;15.10;99.90
20081;DHT22;10200;49.232;9.222;2022-09-13T05:41:32;15.10;99.90
20081;DHT22;10200;49.232;9.222;2022-09-13T05:43:58;15.10;99.90
20081;DHT22;10200;49.232;9.222;2022-09-13T05:46:25;15.10;99.90
20081;DHT22;10200;49.232;9.222;2022-09-13T05:48:50;15.20;99.90
20081;DHT22;10200;49.232;9.222;2022-09-13T05:51:18;15.20;99.90
20081;DHT22;10200;49.232;9.222;2022-09-13T05:53:48;15.30;99.90
20081;DHT22;10200;49.232;9.222;2022-09-13T05:56:20;15.60;99.90
20081;DHT22;10200;49.232;9.222;2022-09-13T05:58:46;15.70;99.90
20081;DHT22;10200;49.232;9.222;2022-09-13T06:01:14;15.90;99.90
20081;DHT22;10200;49.232;9.222;2022-09-13T06:03:40;15.90;99.90
20081;DHT22;10200;49.232;9.222;2022-09-13T06:06:06;15.90;99.90
20081;DHT22;10200;49.232;9.222;2022-09-13T06:08:32;15.90;99.90
20081;DHT22;10200;49.232;9.222;2022-09-13T06:11:01;15.80;99.90
20081;DHT22;10200;49.232;9.222;2022-09-13T06:13:28;15.90;99.90
20081;DHT22;10200;49.232;9.222;2022-09-13T06:15:58;15.90;99.90
20081;DHT22;10200;49.232;9.222;2022-09-13T06:18:24;16.00;99.90
20081;DHT22;10200;49.232;9.222;2022-09-13T06:20:51;15.90;99.90
20081;DHT22;10200;49.232;9.222;2022-09-13T06:23:21;15.90;99.90
20081;DHT22;10200;49.232;9.222;2022-09-13T06:25:47;16.00;99.90
20081;DHT22;10200;49.232;9.222;2022-09-13T06:28:12;16.10;99.90
20081;DHT22;10200;49.232;9.222;2022-09-13T06:30:38;16.20;99.90
20081;DHT22;10200;49.232;9.222;2022-09-13T06:33:04;16.20;99.90
20081;DHT22;10200;49.232;9.222;2022-09-13T06:35:29;16.30;99.90
20081;DHT22;10200;49.232;9.222;2022-09-13T06:37:56;16.30;99.90
20081;DHT22;10200;49.232;9.222;2022-09-13T06:40:24;16.40;99.90
20081;DHT22;10200;49.232;9.222;2022-09-13T06:42:50;16.50;99.90
20081;DHT22;10200;49.232;9.222;2022-09-13T06:45:16;16.50;99.90
20081;DHT22;10200;49.232;9.222;2022-09-13T06:47:43;16.60;99.90
20081;DHT22;10200;49.232;9.222;2022-09-13T06:50:08;16.60;99.90
20081;DHT22;10200;49.232;9.222;2022-09-13T06:52:34;16.70;99.90
20081;DHT22;10200;49.232;9.222;2022-09-13T06:55:00;17.00;99.90
20081;DHT22;10200;49.232;9.222;2022-09-13T06:57:28;17.50;99.90
20081;DHT22;10200;49.232;9.222;2022-09-13T06:59:54;18.10;99.90
20081;DHT22;10200;49.232;9.222;2022-09-13T07:02:19;19.00;99.90
20081;DHT22;10200;49.232;9.222;2022-09-13T07:04:45;19.90;98.30
20081;DHT22;10200;49.232;9.222;2022-09-13T07:07:10;20.40;93.90
20081;DHT22;10200;49.232;9.222;2022-09-13T07:09:36;20.40;90.10
20081;DHT22;10200;49.232;9.222;2022-09-13T07:12:04;20.30;87.10
20081;DHT22;10200;49.232;9.222;2022-09-13T07:14:30;20.00;86.10
20081;DHT22;10200;49.232;9.222;2022-09-13T07:16:56;19.70;87.30
20081;DHT22;10200;49.232;9.222;2022-09-13T07:19:26;19.40;88.10
20081;DHT22;10200;49.232;9.222;2022-09-13T07:21:52;19.10;89.10
20081;DHT22;10200;49.232;9.222;2022-09-13T07:24:19;18.90;90.30
20081;DHT22;10200;49.232;9.222;2022-09-13T07:26:45;18.80;90.60
20081;DHT22;10200;49.232;9.222;2022-09-13T07:29:13;18.70;91.10
20081;DHT22;10200;49.232;9.222;2022-09-13T07:31:43;18.70;92.00
20081;DHT22;10200;49.232;9.222;2022-09-13T07:34:16;18.60;91.90
20081;DHT22;10200;49.232;9.222;2022-09-13T07:36:43;18.50;91.80
20081;DHT22;10200;49.232;9.222;2022-09-13T07:39:11;18.60;92.40
20081;DHT22;10200;49.232;9.222;2022-09-13T07:41:37;18.60;92.10
20081;DHT22;10200;49.232;9.222;2022-09-13T07:44:04;18.50;92.60
20081;DHT22;10200;49.232;9.222;2022-09-13T07:46:33;18.50;92.50
20081;DHT22;10200;49.232;9.222;2022-09-13T07:49:01;18.60;93.10
20081;DHT22;10200;49.232;9.222;2022-09-13T07:51:29;18.70;92.90
20081;DHT22;10200;49.232;9.222;2022-09-13T07:53:57;18.90;93.70
20081;DHT22;10200;49.232;9.222;2022-09-13T07:56:25;19.20;93.30
20081;DHT22;10200;49.232;9.222;2022-09-13T07:58:51;19.40;92.20
20081;DHT22;10200;49.232;9.222;2022-09-13T08:01:33;19.60;92.30
20081;DHT22;10200;49.232;9.222;2022-09-13T08:04:01;19.80;91.00
20081;DHT22;10200;49.232;9.222;2022-09-13T08:06:29;20.00;90.80
20081;DHT22;10200;49.232;9.222;2022-09-13T08:08:56;20.20;89.90
20081;DHT22;10200;49.232;9.222;2022-09-13T08:11:28;20.30;88.90
20081;DHT22;10200;49.232;9.222;2022-09-13T08:13:55;20.50;87.00
20081;DHT22;10200;49.232;9.222;2022-09-13T08:16:22;20.60;87.00
20081;DHT22;10200;49.232;9.222;2022-09-13T08:18:50;20.60;85.90
20081;DHT22;10200;49.232;9.222;2022-09-13T08:21:16;20.70;84.60
20081;DHT22;10200;49.232;9.222;2022-09-13T08:23:42;20.80;85.20
20081;DHT22;10200;49.232;9.222;2022-09-13T08:26:08;21.00;84.70
20081;DHT22;10200;49.232;9.222;2022-09-13T08:28:35;21.20;84.00
20081;DHT22;10200;49.232;9.222;2022-09-13T08:31:09;21.60;84.00
20081;DHT22;10200;49.232;9.222;2022-09-13T08:33:35;22.00;81.90
20081;DHT22;10200;49.232;9.222;2022-09-13T08:36:02;22.30;79.80
20081;DHT22;10200;49.232;9.222;2022-09-13T08:38:29;22.50;77.60
20081;DHT22;10200;49.232;9.222;2022-09-13T08:41:01;22.40;75.60
20081;DHT22;10200;49.232;9.222;2022-09-13T08:43:46;22.30;75.90
20081;DHT22;10200;49.232;9.222;2022-09-13T08:46:21;22.40;75.90
20081;DHT22;10200;49.232;9.222;2022-09-13T08:48:50;22.40;75.30
20081;DHT22;10200;49.232;9.222;2022-09-13T08:51:30;22.30;74.70
20081;DHT22;10200;49.232;9.222;2022-09-13T08:53:57;22.30;75.30
20081;DHT22;10200;49.232;9.222;2022-09-13T08:56:50;22.30;75.60
20081;DHT22;10200;49.232;9.222;2022-09-13T09:05:05;22.50;74.60
20081;DHT22;10200;49.232;9.222;2022-09-13T09:07:43;22.80;74.00
20081;DHT22;10200;49.232;9.222;2022-09-13T09:10:19;23.00;72.80
20081;DHT22;10200;49.232;9.222;2022-09-13T09:15:21;23.40;71.00
20081;DHT22;10200;49.232;9.222;2022-09-13T09:17:53;23.50;70.50
20081;DHT22;10200;49.232;9.222;2022-09-13T09:20:27;23.50;70.10
20081;DHT22;10200;49.232;9.222;2022-09-13T09:22:54;23.70;71.50
20081;DHT22;10200;49.232;9.222;2022-09-13T09:25:36;23.90;68.80
20081;DHT22;10200;49.232;9.222;2022-09-13T09:28:10;23.90;66.50
20081;DHT22;10200;49.232;9.222;2022-09-13T09:31:11;24.10;66.20
20081;DHT22;10200;49.232;9.222;2022-09-13T09:38:49;24.20;64.90
20081;DHT22;10200;49.232;9.222;2022-09-13T09:41:28;24.20;63.50
20081;DHT22;10200;49.232;9.222;2022-09-13T09:46:42;24.50;63.50
20081;DHT22;10200;49.232;9.222;2022-09-13T09:52:09;24.40;62.30
20081;DHT22;10200;49.232;9.222;2022-09-13T09:54:36;24.40;62.50
20081;DHT22;10200;49.232;9.222;2022-09-13T09:57:03;24.40;62.80
20081;DHT22;10200;49.232;9.222;2022-09-13T09:59:32;24.40;62.70
20081;DHT22;10200;49.232;9.222;2022-09-13T10:01:59;24.40;63.10
20081;DHT22;10200;49.232;9.222;2022-09-13T10:04:27;24.40;62.40
20081;DHT22;10200;49.232;9.222;2022-09-13T10:07:17;24.40;62.40
20081;DHT22;10200;49.232;9.222;2022-09-13T10:09:58;24.40;63.40
20081;DHT22;10200;49.232;9.222;2022-09-13T10:12:26;24.50;63.20
20081;DHT22;10200;49.232;9.222;2022-09-13T10:15:15;24.60;63.30
20081;DHT22;10200;49.232;9.222;2022-09-13T10:17:41;24.70;62.60
20081;DHT22;10200;49.232;9.222;2022-09-13T10:22:39;25.30;61.80
20081;DHT22;10200;49.232;9.222;2022-09-13T10:25:27;25.30;59.80
20081;DHT22;10200;49.232;9.222;2022-09-13T10:27:55;25.30;59.90
20081;DHT22;10200;49.232;9.222;2022-09-13T10:30:47;25.40;60.00
20081;DHT22;10200;49.232;9.222;2022-09-13T10:33:31;25.40;60.00
20081;DHT22;10200;49.232;9.222;2022-09-13T10:36:30;25.70;59.90
20081;DHT22;10200;49.232;9.222;2022-09-13T10:39:03;25.70;59.90
20081;DHT22;10200;49.232;9.222;2022-09-13T10:41:32;25.80;59.80
20081;DHT22;10200;49.232;9.222;2022-09-13T10:44:01;25.80;59.20
20081;DHT22;10200;49.232;9.222;2022-09-13T10:46:33;25.70;58.60
20081;DHT22;10200;49.232;9.222;2022-09-13T10:49:00;25.60;59.00
20081;DHT22;10200;49.232;9.222;2022-09-13T10:56:36;25.30;58.80
20081;DHT22;10200;49.232;9.222;2022-09-13T11:02:02;25.20;60.40
20081;DHT22;10200;49.232;9.222;2022-09-13T11:07:34;25.30;61.50
20081;DHT22;10200;49.232;9.222;2022-09-13T11:13:10;25.30;60.70
20081;DHT22;10200;49.232;9.222;2022-09-13T11:21:30;25.50;61.00
20081;DHT22;10200;49.232;9.222;2022-09-13T11:26:59;25.70;60.60
20081;DHT22;10200;49.232;9.222;2022-09-13T11:29:57;25.80;60.00
20081;DHT22;10200;49.232;9.222;2022-09-13T11:38:27;25.90;59.50
20081;DHT22;10200;49.232;9.222;2022-09-13T11:40:57;25.90;59.70
20081;DHT22;10200;49.232;9.222;2022-09-13T11:55:05;25.90;59.60
20081;DHT22;10200;49.232;9.222;2022-09-13T11:57:40;25.90;59.50
20081;DHT22;10200;49.232;9.222;2022-09-13T12:00:19;25.90;59.10
20081;DHT22;10200;49.232;9.222;2022-09-13T12:05:26;25.90;59.00
20081;DHT22;10200;49.232;9.222;2022-09-13T12:10:42;25.70;59.80
20081;DHT22;10200;49.232;9.222;2022-09-13T12:13:19;25.60;59.70
20081;DHT22;10200;49.232;9.222;2022-09-13T12:15:47;25.60;60.40
20081;DHT22;10200;49.232;9.222;2022-09-13T12:18:19;25.50;60.40
20081;DHT22;10200;49.232;9.222;2022-09-13T12:20:52;25.50;60.20
20081;DHT22;10200;49.232;9.222;2022-09-13T12:23:40;25.50;60.40
20081;DHT22;10200;49.232;9.222;2022-09-13T12:26:14;25.50;60.00
20081;DHT22;10200;49.232;9.222;2022-09-13T12:28:45;25.50;59.80
20081;DHT22;10200;49.232;9.222;2022-09-13T12:31:21;25.50;59.70
20081;DHT22;10200;49.232;9.222;2022-09-13T12:33:47;25.50;59.80
20081;DHT22;10200;49.232;9.222;2022-09-13T12:36:36;25.50;59.80
20081;DHT22;10200;49.232;9.222;2022-09-13T12:44:53;25.70;59.10
20081;DHT22;10200;49.232;9.222;2022-09-13T12:47:37;25.90;59.10
20081;DHT22;10200;49.232;9.222;2022-09-13T12:50:23;26.00;58.90
20081;DHT22;10200;49.232;9.222;2022-09-13T13:01:20;26.30;58.10
20081;DHT22;10200;49.232;9.222;2022-09-13T13:04:00;26.50;57.60
20081;DHT22;10200;49.232;9.222;2022-09-13T13:07:19;26.60;57.40
20081;DHT22;10200;49.232;9.222;2022-09-13T13:09:38;26.60;57.30
20081;DHT22;10200;49.232;9.222;2022-09-13T13:12:10;26.60;56.70
20081;DHT22;10200;49.232;9.222;2022-09-13T13:19:58;26.60;57.40
20081;DHT22;10200;49.232;9.222;2022-09-13T13:25:56;26.50;56.60
20081;DHT22;10200;49.232;9.222;2022-09-13T13:33:55;26.10;56.80
20081;DHT22;10200;49.232;9.222;2022-09-13T13:38:51;26.20;57.40
20081;DHT22;10200;49.232;9.222;2022-09-13T13:43:59;26.10;57.40
20081;DHT22;10200;49.232;9.222;2022-09-13T13:46:31;26.10;57.20
20081;DHT22;10200;49.232;9.222;2022-09-13T13:57:33;26.20;57.70
20081;DHT22;10200;49.232;9.222;2022-09-13T14:00:23;26.20;57.70
20081;DHT22;10200;49.232;9.222;2022-09-13T14:05:52;26.40;57.00
20081;DHT22;10200;49.232;9.222;2022-09-13T14:13:46;26.70;55.60
20081;DHT22;10200;49.232;9.222;2022-09-13T14:19:21;27.00;55.40
20081;DHT22;10200;49.232;9.222;2022-09-13T14:22:05;27.00;54.50
20081;DHT22;10200;49.232;9.222;2022-09-13T14:24:39;27.00;55.10
20081;DHT22;10200;49.232;9.222;2022-09-13T14:27:13;26.90;55.40
20081;DHT22;10200;49.232;9.222;2022-09-13T14:29:44;26.80;55.80
20081;DHT22;10200;49.232;9.222;2022-09-13T14:32:15;26.70;56.20
20081;DHT22;10200;49.232;9.222;2022-09-13T14:34:59;26.70;56.30
20081;DHT22;10200;49.232;9.222;2022-09-13T14:37:28;26.60;56.60
20081;DHT22;10200;49.232;9.222;2022-09-13T14:40:18;26.60;56.80
20081;DHT22;10200;49.232;9.222;2022-09-13T14:42:46;26.50;57.20
20081;DHT22;10200;49.232;9.222;2022-09-13T14:45:45;26.50;57.40
20081;DHT22;10200;49.232;9.222;2022-09-13T14:48:20;26.40;57.60
20081;DHT22;10200;49.232;9.222;2022-09-13T14:53:21;26.30;57.40
20081;DHT22;10200;49.232;9.222;2022-09-13T14:55:51;26.20;57.70
20081;DHT22;10200;49.232;9.222;2022-09-13T14:58:22;26.20;58.10
20081;DHT22;10200;49.232;9.222;2022-09-13T15:01:01;26.20;58.40
20081;DHT22;10200;49.232;9.222;2022-09-13T15:03:27;26.20;58.90
20081;DHT22;10200;49.232;9.222;2022-09-13T15:05:59;26.20;58.90
20081;DHT22;10200;49.232;9.222;2022-09-13T15:08:38;26.10;58.60
20081;DHT22;10200;49.232;9.222;2022-09-13T15:11:10;26.10;58.80
20081;DHT22;10200;49.232;9.222;2022-09-13T15:13:37;26.00;58.80
20081;DHT22;10200;49.232;9.222;2022-09-13T15:16:28;26.00;58.80
20081;DHT22;10200;49.232;9.222;2022-09-13T15:19:16;26.00;59.00
20081;DHT22;10200;49.232;9.222;2022-09-13T15:21:50;25.90;59.20
20081;DHT22;10200;49.232;9.222;2022-09-13T15:24:29;25.90;59.30
20081;DHT22;10200;49.232;9.222;2022-09-13T15:27:13;25.90;59.40
20081;DHT22;10200;49.232;9.222;2022-09-13T15:29:47;25.90;59.30
20081;DHT22;10200;49.232;9.222;2022-09-13T15:32:39;25.90;59.10
20081;DHT22;10200;49.232;9.222;2022-09-13T15:35:16;25.90;59.30
20081;DHT22;10200;49.232;9.222;2022-09-13T15:37:43;25.90;59.70
20081;DHT22;10200;49.232;9.222;2022-09-13T15:40:21;25.90;59.70
20081;DHT22;10200;49.232;9.222;2022-09-13T15:42:48;25.90;59.70
20081;DHT22;10200;49.232;9.222;2022-09-13T15:45:15;25.80;59.50
20081;DHT22;10200;49.232;9.222;2022-09-13T15:47:44;25.80;59.70
20081;DHT22;10200;49.232;9.222;2022-09-13T15:50:21;25.70;60.10
20081;DHT22;10200;49.232;9.222;2022-09-13T15:52:47;25.80;60.50
20081;DHT22;10200;49.232;9.222;2022-09-13T15:55:13;25.80;61.00
20081;DHT22;10200;49.232;9.222;2022-09-13T15:57:39;25.70;61.10
20081;DHT22;10200;49.232;9.222;2022-09-13T16:00:09;25.70;61.10
20081;DHT22;10200;49.232;9.222;2022-09-13T16:02:35;25.60;60.80
20081;DHT22;10200;49.232;9.222;2022-09-13T16:05:00;25.60;61.30
20081;DHT22;10200;49.232;9.222;2022-09-13T16:07:26;25.60;62.00
20081;DHT22;10200;49.232;9.222;2022-09-13T16:09:52;25.50;62.40
20081;DHT22;10200;49.232;9.222;2022-09-13T16:12:18;25.50;62.90
20081;DHT22;10200;49.232;9.222;2022-09-13T16:14:45;25.40;63.30
20081;DHT22;10200;49.232;9.222;2022-09-13T16:17:21;25.40;63.60
20081;DHT22;10200;49.232;9.222;2022-09-13T16:19:47;25.30;64.20
20081;DHT22;10200;49.232;9.222;2022-09-13T16:22:14;25.30;64.50
20081;DHT22;10200;49.232;9.222;2022-09-13T16:24:39;25.20;64.50
20081;DHT22;10200;49.232;9.222;2022-09-13T16:27:05;25.20;64.80
20081;DHT22;10200;49.232;9.222;2022-09-13T16:29:30;25.10;64.90
20081;DHT22;10200;49.232;9.222;2022-09-13T16:31:56;25.00;65.10
20081;DHT22;10200;49.232;9.222;2022-09-13T16:34:24;24.90;65.40
20081;DHT22;10200;49.232;9.222;2022-09-13T16:36:50;24.90;65.80
20081;DHT22;10200;49.232;9.222;2022-09-13T16:39:15;24.90;66.00
20081;DHT22;10200;49.232;9.222;2022-09-13T16:41:41;24.80;66.20
20081;DHT22;10200;49.232;9.222;2022-09-13T16:44:07;24.80;66.50
20081;DHT22;10200;49.232;9.222;2022-09-13T16:46:33;24.80;67.00
20081;DHT22;10200;49.232;9.222;2022-09-13T16:48:58;24.70;67.00
20081;DHT22;10200;49.232;9.222;2022-09-13T16:51:25;24.70;67.10
20081;DHT22;10200;49.232;9.222;2022-09-13T16:53:52;24.70;67.00
20081;DHT22;10200;49.232;9.222;2022-09-13T16:56:20;24.60;67.30
20081;DHT22;10200;49.232;9.222;2022-09-13T16:58:46;24.60;67.80
20081;DHT22;10200;49.232;9.222;2022-09-13T17:01:19;24.50;68.00
20081;DHT22;10200;49.232;9.222;2022-09-13T17:03:44;24.50;68.30
20081;DHT22;10200;49.232;9.222;2022-09-13T17:06:12;24.40;69.30
20081;DHT22;10200;49.232;9.222;2022-09-13T17:08:40;24.40;68.60
20081;DHT22;10200;49.232;9.222;2022-09-13T17:11:09;24.30;68.60
20081;DHT22;10200;49.232;9.222;2022-09-13T17:13:36;24.30;69.70
20081;DHT22;10200;49.232;9.222;2022-09-13T17:16:02;24.20;69.40
20081;DHT22;10200;49.232;9.222;2022-09-13T17:18:28;24.20;69.60
20081;DHT22;10200;49.232;9.222;2022-09-13T17:20:53;24.10;69.70
20081;DHT22;10200;49.232;9.222;2022-09-13T17:23:19;24.10;69.70
20081;DHT22;10200;49.232;9.222;2022-09-13T17:25:46;24.00;69.90
20081;DHT22;10200;49.232;9.222;2022-09-13T17:28:16;24.00;70.30
20081;DHT22;10200;49.232;9.222;2022-09-13T17:30:42;23.90;70.60
20081;DHT22;10200;49.232;9.222;2022-09-13T17:33:08;23.90;70.70
20081;DHT22;10200;49.232;9.222;2022-09-13T17:35:34;23.90;70.90
20081;DHT22;10200;49.232;9.222;2022-09-13T17:38:00;23.80;71.50
20081;DHT22;10200;49.232;9.222;2022-09-13T17:40:28;23.80;71.60
20081;DHT22;10200;49.232;9.222;2022-09-13T17:42:54;23.70;71.60
20081;DHT22;10200;49.232;9.222;2022-09-13T17:45:20;23.70;72.90
20081;DHT22;10200;49.232;9.222;2022-09-13T17:47:46;23.60;72.40
20081;DHT22;10200;49.232;9.222;2022-09-13T17:50:12;23.60;72.90
20081;DHT22;10200;49.232;9.222;2022-09-13T17:52:38;23.50;73.20
20081;DHT22;10200;49.232;9.222;2022-09-13T17:55:03;23.50;73.70
20081;DHT22;10200;49.232;9.222;2022-09-13T17:57:29;23.40;74.20
20081;DHT22;10200;49.232;9.222;2022-09-13T17:59:55;23.40;74.50
20081;DHT22;10200;49.232;9.222;2022-09-13T18:02:21;23.30;75.10
20081;DHT22;10200;49.232;9.222;2022-09-13T18:04:48;23.30;75.30
20081;DHT22;10200;49.232;9.222;2022-09-13T18:07:15;23.30;75.50
20081;DHT22;10200;49.232;9.222;2022-09-13T18:09:41;23.30;75.70
20081;DHT22;10200;49.232;9.222;2022-09-13T18:12:07;23.20;75.80
20081;DHT22;10200;49.232;9.222;2022-09-13T18:14:33;23.20;76.10
20081;DHT22;10200;49.232;9.222;2022-09-13T18:16:59;23.20;76.40
20081;DHT22;10200;49.232;9.222;2022-09-13T18:19:24;23.20;76.50
20081;DHT22;10200;49.232;9.222;2022-09-13T18:21:50;23.10;76.80
20081;DHT22;10200;49.232;9.222;2022-09-13T18:24:15;23.00;76.90
20081;DHT22;10200;49.232;9.222;2022-09-13T18:26:41;23.00;77.30
20081;DHT22;10200;49.232;9.222;2022-09-13T18:29:11;23.00;77.50
20081;DHT22;10200;49.232;9.222;2022-09-13T18:31:38;22.90;77.70
20081;DHT22;10200;49.232;9.222;2022-09-13T18:34:07;22.90;78.20
20081;DHT22;10200;49.232;9.222;2022-09-13T18:36:34;22.80;78.30
20081;DHT22;10200;49.232;9.222;2022-09-13T18:39:01;23.10;83.50
20081;DHT22;10200;49.232;9.222;2022-09-13T18:43:59;22.70;79.70
20081;DHT22;10200;49.232;9.222;2022-09-13T18:46:27;22.70;80.00
20081;DHT22;10200;49.232;9.222;2022-09-13T18:48:54;22.60;80.20
20081;DHT22;10200;49.232;9.222;2022-09-13T18:51:27;22.60;80.30